createdAt,value
2023-10-19T00:02:58.956Z,17.05
2023-10-19T00:07:05.438Z,18.58
2023-10-19T00:11:10.521Z,18.00
2023-10-19T00:15:15.463Z,17.77
2023-10-19T00:19:20.805Z,18.42
2023-10-19T00:23:33.043Z,18.00
2023-10-19T00:27:36.295Z,16.63
2023-10-19T00:31:42.270Z,18.52
2023-10-19T00:35:48.016Z,18.98
2023-10-19T00:39:55.691Z,17.60
2023-10-19T00:44:03.919Z,16.40
2023-10-19T00:48:09.217Z,15.02
2023-10-19T00:52:13.498Z,16.33
2023-10-19T00:56:20.737Z,16.23
2023-10-19T01:00:31.720Z,17.90
2023-10-19T01:04:35.812Z,16.75
2023-10-19T01:08:43.504Z,16.35
2023-10-19T01:12:47.678Z,16.25
2023-10-19T01:16:51.061Z,15.50
2023-10-19T01:20:56.313Z,16.35
2023-10-19T01:25:04.962Z,17.07
2023-10-19T01:29:14.642Z,16.08
2023-10-19T01:33:17.549Z,17.20
2023-10-19T01:37:21.371Z,17.13
2023-10-19T01:41:27.436Z,16.08
2023-10-19T01:49:33.026Z,16.35
2023-10-19T01:53:37.613Z,15.85
2023-10-19T01:57:41.836Z,16.55
2023-10-19T02:01:46.558Z,16.73
2023-10-19T02:05:51.308Z,16.58
2023-10-19T02:09:54.148Z,15.18
2023-10-19T02:14:01.041Z,17.27
2023-10-19T02:18:04.426Z,15.18
2023-10-19T02:22:09.488Z,16.13
2023-10-19T02:26:14.789Z,14.40
2023-10-19T02:30:19.883Z,15.30
2023-10-19T02:34:24.164Z,15.38
2023-10-19T02:38:27.745Z,14.55
2023-10-19T02:42:30.599Z,14.00
2023-10-19T02:46:35.246Z,14.98
2023-10-19T02:50:38.136Z,14.65
2023-10-19T02:54:40.993Z,14.25
2023-10-19T02:58:45.214Z,13.73
2023-10-19T03:02:52.995Z,14.10
2023-10-19T03:06:57.261Z,13.90
2023-10-19T03:11:05.877Z,13.82
2023-10-19T03:15:09.398Z,14.13
2023-10-19T03:19:14.117Z,14.57
2023-10-19T03:23:17.108Z,15.50
2023-10-19T03:27:22.899Z,14.77
2023-10-19T03:35:31.336Z,12.43
2023-10-19T03:39:38.592Z,13.90
2023-10-19T03:43:42.414Z,13.13
2023-10-19T03:47:48.105Z,13.43
2023-10-19T03:52:01.030Z,12.73
2023-10-19T03:56:11.971Z,13.00
2023-10-19T04:00:20.755Z,13.25
2023-10-19T04:04:23.669Z,12.73
2023-10-19T04:08:28.174Z,12.38
2023-10-19T04:12:32.093Z,12.20
2023-10-19T04:16:38.346Z,11.52
2023-10-19T04:20:56.544Z,12.48
2023-10-19T04:25:02.217Z,11.70
2023-10-19T04:29:10.944Z,11.10
2023-10-19T04:33:17.452Z,11.35
2023-10-19T04:37:20.581Z,12.43
2023-10-19T04:41:24.807Z,12.27
2023-10-19T04:45:27.751Z,12.82
2023-10-19T04:49:30.669Z,13.38
2023-10-19T04:53:34.208Z,14.10
2023-10-19T04:57:38.406Z,13.20
2023-10-19T05:01:42.535Z,12.93
2023-10-19T05:05:45.404Z,12.20
2023-10-19T05:09:48.868Z,12.82
2023-10-19T05:13:53.086Z,12.98
2023-10-19T05:17:56.132Z,12.98
2023-10-19T05:21:59.007Z,13.38
2023-10-19T05:26:03.625Z,12.88
2023-10-19T05:30:11.412Z,12.10
2023-10-19T05:34:14.364Z,12.70
2023-10-19T05:38:17.566Z,12.90
2023-10-19T05:42:21.517Z,11.98
2023-10-19T05:46:26.469Z,12.13
2023-10-19T05:50:29.691Z,13.02
2023-10-19T05:54:32.685Z,13.13
2023-10-19T05:58:37.159Z,14.95
2023-10-19T06:02:46.056Z,13.27
2023-10-19T06:06:49.563Z,11.45
2023-10-19T06:10:54.059Z,11.38
2023-10-19T06:14:56.911Z,10.85
2023-10-19T06:19:01.203Z,9.60
2023-10-19T06:23:06.557Z,9.55
2023-10-19T06:27:10.439Z,9.27
2023-10-19T06:31:14.973Z,6.95
2023-10-19T06:35:19.357Z,7.30
2023-10-19T06:39:22.779Z,6.65
2023-10-19T06:43:31.828Z,7.20
2023-10-19T06:47:38.519Z,7.45
2023-10-19T06:51:42.760Z,12.50
2023-10-19T06:55:45.718Z,11.25
2023-10-19T06:59:48.547Z,9.35
2023-10-19T07:03:54.645Z,6.70
2023-10-19T07:08:00.978Z,9.77
2023-10-19T07:12:04.241Z,9.68
2023-10-19T07:16:10.277Z,9.10
2023-10-19T07:20:26.348Z,6.40
2023-10-19T07:24:30.781Z,5.80
2023-10-19T07:28:36.976Z,5.30
2023-10-19T07:32:41.774Z,4.68
2023-10-19T07:36:44.845Z,4.70
2023-10-19T07:40:49.253Z,5.28
2023-10-19T07:44:52.150Z,5.25
2023-10-19T07:48:54.973Z,4.78
2023-10-19T07:52:57.810Z,4.38
2023-10-19T07:57:04.464Z,3.92
2023-10-19T08:05:35.549Z,4.35
2023-10-19T08:09:38.415Z,4.07
2023-10-19T08:13:42.715Z,3.85
2023-10-19T08:17:48.011Z,3.72
2023-10-19T08:21:50.955Z,3.50
2023-10-19T08:25:56.837Z,3.28
2023-10-19T08:30:01.901Z,3.70
2023-10-19T08:34:04.769Z,9.65
2023-10-19T08:38:12.747Z,4.30
2023-10-19T08:42:15.852Z,4.40
2023-10-19T08:46:20.201Z,5.88
2023-10-19T08:50:24.869Z,3.65
2023-10-19T08:54:28.386Z,3.80
2023-10-19T08:58:32.508Z,4.25
2023-10-19T09:02:36.722Z,4.60
2023-10-19T09:06:43.342Z,6.10
2023-10-19T09:10:47.810Z,5.43
2023-10-19T09:14:51.121Z,5.50
2023-10-19T09:18:55.493Z,5.78
2023-10-19T09:22:59.282Z,6.28
2023-10-19T09:27:03.496Z,5.25
2023-10-19T09:31:10.596Z,4.40
2023-10-19T09:35:16.917Z,4.10
2023-10-19T09:43:29.536Z,4.18
2023-10-19T09:47:37.495Z,4.03
2023-10-19T09:51:55.129Z,4.40
2023-10-19T09:56:12.566Z,3.85
2023-10-19T10:00:16.683Z,3.80
2023-10-19T10:04:33.509Z,4.90
2023-10-19T10:08:39.218Z,4.75
2023-10-19T10:12:42.070Z,5.43
2023-10-19T10:16:45.962Z,5.40
2023-10-19T10:20:49.683Z,4.78
2023-10-19T10:24:58.125Z,4.97
2023-10-19T10:29:13.197Z,4.97
2023-10-19T10:33:47.328Z,5.32
2023-10-19T10:37:56.392Z,4.80
2023-10-19T10:42:01.559Z,5.05
2023-10-19T10:46:08.520Z,4.33
2023-10-19T10:50:11.689Z,5.10
2023-10-19T10:54:15.574Z,4.60
2023-10-19T10:58:22.974Z,3.65
2023-10-19T11:02:25.861Z,4.22
2023-10-19T11:06:28.693Z,4.72
2023-10-19T11:10:32.463Z,3.90
2023-10-19T11:14:36.781Z,3.95
2023-10-19T11:18:41.539Z,3.45
2023-10-19T11:22:51.284Z,3.50
2023-10-19T11:26:55.332Z,3.47
2023-10-19T11:31:13.145Z,3.17
2023-10-19T11:35:16.153Z,4.30
2023-10-19T11:39:19.013Z,3.72
2023-10-19T11:43:21.842Z,3.25
2023-10-19T11:47:26.015Z,3.38
2023-10-19T11:51:28.878Z,2.67
2023-10-19T11:55:32.238Z,3.10
2023-10-19T11:59:35.070Z,3.00
2023-10-19T12:03:40.756Z,2.88
2023-10-19T12:11:50.789Z,2.23
2023-10-19T12:15:55.575Z,2.53
2023-10-19T12:20:00.046Z,2.05
2023-10-19T12:24:05.801Z,2.30
2023-10-19T12:28:08.618Z,2.05
2023-10-19T12:32:14.158Z,2.45
2023-10-19T12:36:32.405Z,2.20
2023-10-19T12:40:36.748Z,2.33
2023-10-19T12:44:45.795Z,2.40
2023-10-19T12:48:50.933Z,2.30
2023-10-19T12:52:57.240Z,2.20
2023-10-19T12:57:00.120Z,2.47
2023-10-19T13:01:11.871Z,2.15
2023-10-19T13:05:21.706Z,2.03
2023-10-19T13:09:31.931Z,2.70
2023-10-19T13:13:37.245Z,2.28
2023-10-19T13:17:40.344Z,2.20
2023-10-19T13:21:43.497Z,2.50
2023-10-19T13:25:54.422Z,2.72
2023-10-19T13:29:58.370Z,2.92
2023-10-19T13:34:04.238Z,2.30
2023-10-19T13:38:09.001Z,2.95
2023-10-19T13:42:13.223Z,3.45
2023-10-19T13:46:16.144Z,3.58
2023-10-19T13:50:19.329Z,4.90
2023-10-19T13:54:22.221Z,4.47
2023-10-19T13:58:26.603Z,4.45
2023-10-19T14:02:29.567Z,4.45
2023-10-19T14:06:32.511Z,4.43
2023-10-19T14:10:35.988Z,4.40
2023-10-19T14:14:40.211Z,5.82
2023-10-19T14:18:44.763Z,7.05
2023-10-19T14:22:50.918Z,7.35
2023-10-19T14:31:00.173Z,7.65
2023-10-19T14:35:04.656Z,7.68
2023-10-19T14:39:07.540Z,7.60
2023-10-19T14:43:10.363Z,7.70
2023-10-19T14:47:14.563Z,7.53
2023-10-19T14:51:17.419Z,7.75
2023-10-19T14:55:21.251Z,7.90
2023-10-19T14:59:24.144Z,8.30
2023-10-19T15:03:29.718Z,7.80
2023-10-19T15:07:33.743Z,8.93
2023-10-19T15:11:36.564Z,8.90
2023-10-19T15:15:39.618Z,9.13
2023-10-19T15:19:44.352Z,10.18
2023-10-19T15:23:47.995Z,10.02
2023-10-19T15:27:50.873Z,10.15
2023-10-19T15:31:53.743Z,10.05
2023-10-19T15:35:58.714Z,9.75
2023-10-19T15:40:01.573Z,10.27
2023-10-19T15:44:04.547Z,10.63
2023-10-19T15:48:11.301Z,11.52
2023-10-19T15:52:15.686Z,10.52
2023-10-19T15:56:19.022Z,11.85
2023-10-19T16:00:22.579Z,10.93
2023-10-19T16:04:25.594Z,11.38
2023-10-19T16:08:29.809Z,11.52
2023-10-19T16:12:32.720Z,12.23
2023-10-19T16:16:35.631Z,11.75
2023-10-19T16:20:40.166Z,11.75
2023-10-19T16:24:44.661Z,13.98
2023-10-19T16:28:47.832Z,15.77
2023-10-19T16:32:50.710Z,16.08
2023-10-19T16:36:53.667Z,14.80
2023-10-19T16:41:02.417Z,15.85
2023-10-19T16:45:07.702Z,17.35
2023-10-19T16:49:10.607Z,20.07
2023-10-19T16:53:13.752Z,22.00
2023-10-19T16:57:18.343Z,22.40
2023-10-19T17:01:21.737Z,23.00
2023-10-19T17:05:27.726Z,23.85
2023-10-19T17:09:31.017Z,25.50
2023-10-19T17:13:37.369Z,24.50
2023-10-19T17:17:40.497Z,24.98
2023-10-19T17:21:43.580Z,25.50
2023-10-19T17:25:47.245Z,25.92
2023-10-19T17:29:51.486Z,25.55
2023-10-19T17:33:54.508Z,24.77
2023-10-19T17:37:57.687Z,27.58
2023-10-19T17:42:00.571Z,26.00
2023-10-19T17:46:04.769Z,27.52
2023-10-19T17:50:11.355Z,24.92
2023-10-19T17:54:14.505Z,27.38
2023-10-19T17:58:17.334Z,27.30
2023-10-19T18:02:22.329Z,27.50
2023-10-19T18:06:25.944Z,27.00
2023-10-19T18:10:30.729Z,27.38
2023-10-19T18:14:33.837Z,27.02
2023-10-19T18:18:38.505Z,27.67
2023-10-19T18:22:41.474Z,28.38
2023-10-19T18:26:46.713Z,26.50
2023-10-19T18:30:56.756Z,29.00
2023-10-19T18:35:01.277Z,27.90
2023-10-19T18:39:04.313Z,31.73
2023-10-19T18:43:07.455Z,32.88
2023-10-19T18:47:10.580Z,33.22
2023-10-19T18:51:15.616Z,32.80
2023-10-19T18:55:23.809Z,37.88
2023-10-19T18:59:27.355Z,36.30
2023-10-19T19:03:33.085Z,31.13
2023-10-19T19:07:37.308Z,27.48
2023-10-19T19:11:43.309Z,27.10
2023-10-19T19:15:46.165Z,25.92
2023-10-19T19:19:49.085Z,25.80
2023-10-19T19:23:53.375Z,24.67
2023-10-19T19:27:56.263Z,27.73
2023-10-19T19:31:59.161Z,25.00
2023-10-19T19:36:02.095Z,24.77
2023-10-19T19:40:13.317Z,24.25
2023-10-19T19:44:16.269Z,23.55
2023-10-19T19:48:22.538Z,23.33
2023-10-19T19:52:26.123Z,22.77
2023-10-19T19:56:32.116Z,23.33
2023-10-19T20:00:35.151Z,22.27
2023-10-19T20:04:38.003Z,26.42
2023-10-19T20:08:40.832Z,24.55
2023-10-19T20:12:45.881Z,22.58
2023-10-19T20:16:48.961Z,24.57
2023-10-19T20:20:51.878Z,23.13
2023-10-19T20:24:55.073Z,23.20
2023-10-19T20:28:59.678Z,21.98
2023-10-19T20:33:03.757Z,22.17
2023-10-19T20:37:06.656Z,25.05
2023-10-19T20:41:09.644Z,25.35
2023-10-19T20:45:18.155Z,20.88
2023-10-19T20:49:21.006Z,16.17
2023-10-19T20:53:23.913Z,14.60
2023-10-19T20:57:26.866Z,13.10
2023-10-19T21:01:31.136Z,12.05
2023-10-19T21:05:35.264Z,12.27
2023-10-19T21:09:38.645Z,10.65
2023-10-19T21:13:41.475Z,12.00
2023-10-19T21:17:46.801Z,12.65
2023-10-19T21:21:49.643Z,13.23
2023-10-19T21:25:52.542Z,13.82
2023-10-19T21:29:55.410Z,14.43
2023-10-19T21:33:59.624Z,14.35
2023-10-19T21:38:02.720Z,14.77
2023-10-19T21:42:05.644Z,13.73
2023-10-19T21:46:08.536Z,13.68
2023-10-19T21:50:13.083Z,14.52
2023-10-19T21:54:16.064Z,14.50
2023-10-19T21:58:18.883Z,14.52
2023-10-19T22:02:21.804Z,14.85
2023-10-19T22:06:26.059Z,14.13
2023-10-19T22:10:28.962Z,15.90
2023-10-19T22:14:34.555Z,16.27
2023-10-19T22:18:37.689Z,17.17
2023-10-19T22:22:42.368Z,17.45
2023-10-19T22:26:45.202Z,16.05
2023-10-19T22:30:48.005Z,17.58
2023-10-19T22:34:50.840Z,17.92
2023-10-19T22:38:55.462Z,19.70
2023-10-19T22:42:58.312Z,19.05
2023-10-19T22:47:02.137Z,18.58
2023-10-19T22:51:05.203Z,20.90
2023-10-19T22:55:13.910Z,20.27
2023-10-19T22:59:16.773Z,20.30
2023-10-19T23:03:19.719Z,20.52
2023-10-19T23:07:22.559Z,20.08
2023-10-19T23:11:30.219Z,19.77
2023-10-19T23:15:38.008Z,19.00
2023-10-19T23:19:42.985Z,18.40
2023-10-19T23:23:46.716Z,18.10
2023-10-19T23:27:50.945Z,18.08
2023-10-19T23:31:53.881Z,16.63
2023-10-19T23:35:57.775Z,16.75
2023-10-19T23:40:00.607Z,17.13
2023-10-19T23:44:07.227Z,16.38
2023-10-19T23:48:12.144Z,16.85
2023-10-19T23:52:17.338Z,16.48
2023-10-19T23:56:20.202Z,15.05
